Mount Storm, West Virginia
Current Conditions -  °F | °C
As of 11:35 AM on Thursday 23 Oct 2014 (Local Time) from KW99 Reporting Station
Scattered Clouds Scattered Clouds  
Wind Chill: 13°   Ceiling: Unl
Heat Index: 13°   Visibility: 10mi
Dew Point:   Wind: 10mph
Humidity: 56%   Direction: 280°W
Pressure: 30.07"   Gusts: NA
Location:  39.28°N, 79.24°W
Report Text: KW99 231535Z AUTO 28009KT 10SM SCT036 SCT042 SCT050 13/04 A3007 RMK AO2 T01260040
Loading
Personal Weather Stations






























Interactive Weather Map
Tropical Storm Tracking
New forecast layout! Learn more

10-Day Weather Forecast

Advertisements
Track Severe Weather on mobile